Time;durP1;ratioP1;P1;durP2;ratioP2;P2;SDS_P1;SDS_P2;PMS_P1;PMS_P2;Temp;Humidity;BMP_temperature;BMP_pressure;BME280_temperature;BME280_humidity;BME280_pressure;Samples;Min_cycle;Max_cycle;Signal;HPM_P1;HPM_P2
2023/04/05 00:02:00;;;;;;;5.10;4.60;;;;;;;3.05;59.84;96970.81;5042846;28;20207;-58
2023/04/05 00:04:27;;;;;;;4.93;4.53;;;;;;;3.04;60.38;96966.53;5041840;28;20211;-58
2023/04/05 00:06:54;;;;;;;4.80;4.30;;;;;;;3.00;61.26;96965.84;5041825;28;20214;-58
2023/04/05 00:09:20;;;;;;;4.50;4.10;;;;;;;3.00;60.31;96968.47;5041508;28;20574;-58
2023/04/05 00:11:48;;;;;;;4.50;4.10;;;;;;;2.97;59.45;96966.03;5041661;28;20221;-58
2023/04/05 00:14:14;;;;;;;4.77;4.17;;;;;;;3.00;63.13;96966.72;5041131;28;20539;-58
2023/04/05 00:16:41;;;;;;;4.90;4.13;;;;;;;2.97;64.07;96966.03;5041825;28;20199;-57
2023/04/05 00:19:11;;;;;;;5.17;4.67;;;;;;;2.96;64.47;96970.41;5045439;28;20202;-58
2023/04/05 00:21:39;;;;;;;5.70;4.63;;;;;;;3.04;63.66;96964.75;5044875;28;20238;-58
2023/04/05 00:24:06;;;;;;;5.53;4.50;;;;;;;2.95;65.57;96960.03;5045243;28;20214;-58
2023/04/05 00:26:33;;;;;;;4.90;4.40;;;;;;;2.78;66.10;96961.03;5047340;28;20230;-58
2023/04/05 00:28:59;;;;;;;5.27;4.47;;;;;;;2.74;67.88;96954.28;5048186;28;20205;-58
2023/04/05 00:31:26;;;;;;;5.30;4.67;;;;;;;2.63;68.17;96953.22;5047930;28;20227;-58
2023/04/05 00:33:54;;;;;;;5.03;4.50;;;;;;;2.59;69.09;96949.94;5048403;28;20260;-58
2023/04/05 00:36:21;;;;;;;5.50;4.57;;;;;;;2.57;67.67;96946.59;5047507;28;20217;-57
2023/04/05 00:38:51;;;;;;;5.33;4.80;;;;;;;2.51;68.77;96947.75;5045799;28;20204;-57
2023/04/05 00:41:18;;;;;;;5.20;4.63;;;;;;;2.40;69.55;96944.09;5044557;28;20196;-59
2023/04/05 00:43:45;;;;;;;5.80;5.20;;;;;;;2.37;69.76;96944.25;5044683;28;20200;-58
2023/04/05 00:46:11;;;;;;;5.30;4.80;;;;;;;2.27;71.82;96943.06;5044705;28;20210;-58
2023/04/05 00:48:38;;;;;;;5.07;4.60;;;;;;;2.27;71.49;96940.47;5044369;28;20218;-59
2023/04/05 00:51:08;;;;;;;7.63;5.00;;;;;;;2.33;71.87;96947.97;5044458;28;21013;-58
2023/04/05 00:53:36;;;;;;;5.20;4.80;;;;;;;2.24;73.82;96945.84;5045660;28;20199;-58
2023/04/05 00:56:04;;;;;;;6.67;5.10;;;;;;;2.25;71.76;96943.19;5044908;28;20206;-58
2023/04/05 00:58:30;;;;;;;5.33;4.50;;;;;;;2.26;71.68;96936.19;5045237;28;20206;-58
2023/04/05 01:01:04;;;;;;;6.57;4.97;;;;;;;2.24;71.07;96932.81;5044381;28;20192;-58
2023/04/05 01:03:33;;;;;;;5.00;4.60;;;;;;;2.27;70.78;96932.63;5044533;28;20205;-58
2023/04/05 01:06:06;;;;;;;5.00;4.50;;;;;;;2.26;71.93;96931.81;5044643;28;20277;-57
2023/04/05 01:08:40;;;;;;;5.77;5.07;;;;;;;2.22;71.67;96937.28;5044719;28;20203;-57
2023/04/05 01:11:08;;;;;;;4.67;4.27;;;;;;;2.27;70.37;96930.03;5044738;28;20247;-59
2023/04/05 01:13:34;;;;;;;5.90;4.97;;;;;;;2.25;70.18;96934.50;5045185;28;20200;-58
2023/04/05 01:16:01;;;;;;;6.23;4.70;;;;;;;2.20;70.38;96931.28;5044421;28;20215;-58
2023/04/05 01:18:31;;;;;;;6.87;4.80;;;;;;;2.22;71.82;96926.84;5043818;28;20211;-58
2023/04/05 01:21:09;;;;;;;5.93;5.17;;;;;;;2.20;72.58;96926.91;5045108;28;20219;-58
2023/04/05 01:23:41;;;;;;;5.00;4.60;;;;;;;2.24;72.92;96938.88;5045123;28;20238;-58
2023/04/05 01:26:26;;;;;;;6.13;5.10;;;;;;;2.26;73.34;96925.75;5046504;28;20286;-59
2023/04/05 01:29:37;;;;;;;6.60;5.13;;;;;;;2.27;72.97;96916.97;5043653;28;20639;-58
2023/04/05 01:32:13;;;;;;;5.57;5.03;;;;;;;2.22;70.56;96914.66;5024553;28;20226;-59
2023/04/05 01:34:46;;;;;;;5.00;4.50;;;;;;;2.23;72.43;96915.50;5043960;28;20197;-58
2023/04/05 01:37:13;;;;;;;5.53;5.03;;;;;;;2.30;72.07;96906.41;5044048;28;20203;-59
2023/04/05 01:39:40;;;;;;;8.63;5.53;;;;;;;2.32;70.40;96909.75;5043439;28;20551;-58
2023/04/05 01:42:07;;;;;;;6.20;5.00;;;;;;;2.32;71.59;96904.53;5043607;28;20203;-59
2023/04/05 01:44:34;;;;;;;4.97;4.57;;;;;;;2.39;70.32;96900.66;5044473;28;20204;-57
2023/04/05 01:47:00;;;;;;;6.90;4.90;;;;;;;2.43;69.18;96904.75;5044582;28;20217;-58
2023/04/05 01:49:30;;;;;;;5.97;4.53;;;;;;;2.39;68.73;96908.47;5043455;28;20214;-58
2023/04/05 01:51:56;;;;;;;6.20;5.10;;;;;;;2.36;69.36;96906.88;5044186;28;20606;-59
2023/04/05 01:54:23;;;;;;;4.90;4.50;;;;;;;2.37;68.92;96903.31;5044398;28;20213;-57
2023/04/05 01:56:49;;;;;;;6.80;4.60;;;;;;;2.36;69.26;96900.81;5043997;28;20203;-58
2023/04/05 01:59:16;;;;;;;6.40;5.20;;;;;;;2.35;69.56;96905.19;5043888;28;20547;-58
2023/04/05 02:01:42;;;;;;;5.80;5.20;;;;;;;2.35;69.73;96899.13;5044329;28;20205;-57
2023/04/05 02:04:09;;;;;;;5.50;4.47;;;;;;;2.33;70.03;96907.06;5043627;28;20211;-58
2023/04/05 02:06:40;;;;;;;6.63;5.30;;;;;;;2.37;70.50;96905.13;5043437;28;20225;-59
2023/04/05 02:09:06;;;;;;;5.80;5.03;;;;;;;2.37;71.06;96902.50;5044140;28;20217;-59
2023/04/05 02:11:33;;;;;;;5.97;5.20;;;;;;;2.32;71.58;96901.91;5043235;28;20249;-59
2023/04/05 02:13:59;;;;;;;7.07;5.27;;;;;;;2.35;71.65;96891.31;5042540;28;20203;-57
2023/04/05 02:16:26;;;;;;;5.83;5.17;;;;;;;2.26;72.02;96889.22;5043706;28;20209;-59
2023/04/05 02:18:56;;;;;;;6.70;5.30;;;;;;;2.24;72.13;96880.63;5048354;28;20206;-58
2023/04/05 02:21:24;;;;;;;5.70;5.20;;;;;;;2.23;71.96;96886.78;5051719;28;20203;-59
2023/04/05 02:23:55;;;;;;;6.30;5.10;;;;;;;2.28;71.33;96883.00;5054107;28;20219;-57
2023/04/05 02:26:22;;;;;;;6.27;5.67;;;;;;;2.23;71.45;96884.19;5045421;28;20628;-59
2023/04/05 02:28:51;;;;;;;6.03;5.10;;;;;;;2.25;71.30;96884.94;5044042;28;20214;-58
2023/04/05 02:31:17;;;;;;;6.00;5.40;;;;;;;2.17;71.20;96880.13;5043948;28;20257;-59
2023/04/05 02:33:44;;;;;;;5.77;5.17;;;;;;;2.17;71.46;96874.06;5063952;28;20199;-58
2023/04/05 02:36:12;;;;;;;6.30;5.70;;;;;;;2.08;73.61;96877.22;5068122;28;20182;-58
2023/04/05 02:38:39;;;;;;;7.17;5.23;;;;;;;2.03;73.71;96872.25;5066031;28;20208;-59
2023/04/05 02:41:10;;;;;;;5.80;5.20;;;;;;;2.07;73.18;96872.91;5064583;28;20182;-58
2023/04/05 02:43:37;;;;;;;6.00;5.03;;;;;;;2.10;73.21;96873.59;5044443;28;20203;-58
2023/04/05 02:46:04;;;;;;;5.73;5.07;;;;;;;2.08;72.90;96877.22;5043441;28;20545;-58
2023/04/05 02:48:30;;;;;;;5.97;5.30;;;;;;;2.10;71.66;96865.75;5043113;28;20206;-58
2023/04/05 02:50:57;;;;;;;6.63;5.30;;;;;;;2.14;72.28;96863.81;5042871;28;20245;-59
2023/04/05 02:53:23;;;;;;;8.13;6.10;;;;;;;2.09;72.72;96865.84;5043003;28;20212;-59
2023/04/05 02:55:53;;;;;;;5.73;5.10;;;;;;;2.06;72.99;96855.56;5043854;28;20298;-58
2023/04/05 02:58:23;;;;;;;6.30;5.70;;;;;;;2.08;71.71;96862.41;5042705;28;20297;-58
2023/04/05 03:00:53;;;;;;;5.40;4.90;;;;;;;2.08;71.86;96854.59;5042050;28;20666;-57
2023/04/05 03:03:19;;;;;;;5.90;5.13;;;;;;;2.12;71.51;96847.44;5042170;28;20208;-58
2023/04/05 03:05:47;;;;;;;6.23;5.33;;;;;;;2.00;74.13;96849.78;5043277;28;20202;-58
2023/04/05 03:08:17;;;;;;;5.57;5.00;;;;;;;1.98;72.43;96854.22;5043317;28;20231;-58
2023/04/05 03:10:44;;;;;;;7.20;5.10;;;;;;;2.00;72.09;96841.97;5041317;28;20309;-58
2023/04/05 03:13:11;;;;;;;5.60;5.10;;;;;;;1.97;74.13;96843.91;5042257;28;20211;-58
2023/04/05 03:15:39;;;;;;;5.87;5.27;;;;;;;1.94;73.11;96851.91;5042164;28;20546;-58
2023/04/05 03:18:06;;;;;;;6.43;5.00;;;;;;;1.92;73.41;96843.31;5042395;28;20211;-58
2023/04/05 03:20:35;;;;;;;6.17;5.30;;;;;;;1.89;74.21;96849.53;5041839;28;20238;-57
2023/04/05 03:23:02;;;;;;;5.63;5.13;;;;;;;1.98;73.55;96850.81;5041864;28;20664;-58
2023/04/05 03:25:28;;;;;;;6.93;5.70;;;;;;;1.90;74.71;96839.97;5042359;28;20230;-59
2023/04/05 03:27:56;;;;;;;5.63;5.07;;;;;;;1.84;75.98;96846.34;5042773;28;20206;-59
2023/04/05 03:30:23;;;;;;;7.60;5.40;;;;;;;1.81;75.04;96849.13;5042742;28;20210;-58
2023/04/05 03:32:51;;;;;;;5.70;5.20;;;;;;;1.76;75.18;96847.72;5042297;28;20254;-57
2023/04/05 03:35:18;;;;;;;5.37;4.87;;;;;;;1.73;75.87;96848.72;5042743;28;20208;-59
2023/04/05 03:37:44;;;;;;;6.00;5.30;;;;;;;1.78;75.46;96851.06;5043294;28;20206;-58
2023/04/05 03:40:12;;;;;;;5.80;5.30;;;;;;;1.76;75.54;96853.75;5042329;28;20644;-58
2023/04/05 03:42:38;;;;;;;5.60;5.10;;;;;;;1.72;75.75;96844.44;5042794;28;20636;-59
2023/04/05 03:45:06;;;;;;;5.53;5.13;;;;;;;1.69;75.55;96847.22;5042404;28;20211;-58
2023/04/05 03:47:32;;;;;;;7.90;5.50;;;;;;;1.68;76.46;96845.53;5042816;28;20226;-58
2023/04/05 03:50:01;;;;;;;5.97;5.33;;;;;;;1.70;75.68;96843.66;5041913;28;20206;-58
2023/04/05 03:52:28;;;;;;;6.07;5.53;;;;;;;1.67;75.08;96846.44;5040911;28;20297;-59
2023/04/05 03:54:54;;;;;;;6.00;5.50;;;;;;;1.71;74.83;96840.13;5043008;28;20634;-57
2023/04/05 03:57:21;;;;;;;6.63;5.93;;;;;;;1.71;74.93;96844.50;5042394;28;20207;-59
2023/04/05 03:59:47;;;;;;;6.27;5.67;;;;;;;1.61;75.10;96833.75;5041888;28;20567;-59
2023/04/05 04:02:14;;;;;;;7.00;6.03;;;;;;;1.57;76.47;96834.84;5042938;28;20209;-58
2023/04/05 04:04:41;;;;;;;5.60;5.00;;;;;;;1.58;75.97;96841.72;5041190;28;20545;-57
2023/04/05 04:07:09;;;;;;;7.30;5.90;;;;;;;1.53;75.68;96825.50;5041346;28;20208;-58
2023/04/05 04:09:35;;;;;;;5.37;4.80;;;;;;;1.51;75.57;96843.00;5041814;28;20206;-59
2023/04/05 04:12:02;;;;;;;6.03;5.43;;;;;;;1.37;75.10;96832.47;5041175;28;20764;-58
2023/04/05 04:14:29;;;;;;;6.10;5.50;;;;;;;1.35;75.78;96836.91;5041010;28;20213;-58
2023/04/05 04:16:55;;;;;;;6.93;5.47;;;;;;;1.25;77.18;96833.97;5041585;28;20241;-58
2023/04/05 04:19:22;;;;;;;6.20;5.60;;;;;;;1.22;77.51;96833.28;5041593;28;20246;-59
2023/04/05 04:21:50;;;;;;;9.00;7.50;;;;;;;1.21;76.79;96836.81;5041569;28;20199;-59
2023/04/05 04:24:19;;;;;;;7.17;6.47;;;;;;;1.12;77.48;96839.91;5041636;28;20230;-59
2023/04/05 04:26:46;;;;;;;6.33;5.57;;;;;;;1.04;77.20;96834.25;5041725;28;20214;-59
2023/04/05 04:29:15;;;;;;;6.00;5.50;;;;;;;1.04;77.79;96834.25;5041368;28;20202;-57
2023/04/05 04:31:44;;;;;;;6.07;5.47;;;;;;;0.96;78.89;96830.28;5042476;28;20369;-58
2023/04/05 04:34:12;;;;;;;7.53;5.27;;;;;;;0.96;77.55;96832.91;5041298;28;20213;-58
2023/04/05 04:36:41;;;;;;;8.17;5.63;;;;;;;0.89;77.76;96826.31;5041635;28;20198;-59
2023/04/05 04:39:08;;;;;;;6.23;5.60;;;;;;;0.87;78.49;96827.34;5041270;28;20729;-59
2023/04/05 04:41:37;;;;;;;5.70;5.20;;;;;;;0.79;79.28;96822.53;5041529;28;20255;-59
2023/04/05 04:44:04;;;;;;;9.67;5.77;;;;;;;0.72;79.69;96813.34;5041422;28;20212;-60
2023/04/05 04:46:41;;;;;;;6.63;6.03;;;;;;;0.70;80.09;96825.63;5041078;28;20220;-58
2023/04/05 04:49:09;;;;;;;6.50;5.90;;;;;;;0.64;80.87;96815.50;5044544;28;20207;-58
2023/04/05 04:51:37;;;;;;;6.50;5.83;;;;;;;0.68;80.43;96819.63;5047109;28;20230;-58
2023/04/05 04:54:04;;;;;;;6.27;5.67;;;;;;;0.70;79.61;96825.63;5050447;28;20202;-59
2023/04/05 04:56:30;;;;;;;6.57;5.97;;;;;;;0.63;79.57;96823.41;5046049;28;20623;-59
2023/04/05 04:58:58;;;;;;;6.07;5.40;;;;;;;0.65;80.49;96819.78;5043244;28;20623;-58
2023/04/05 05:01:25;;;;;;;7.27;6.10;;;;;;;0.63;78.71;96826.84;5041888;28;20531;-59
2023/04/05 05:03:52;;;;;;;6.57;6.00;;;;;;;0.60;79.72;96827.00;5043687;28;20206;-58
2023/04/05 05:06:20;;;;;;;6.23;5.60;;;;;;;0.62;79.12;96825.16;5045204;28;20673;-59
2023/04/05 05:08:47;;;;;;;6.40;5.83;;;;;;;0.60;79.91;96832.22;5045822;28;20221;-58
2023/04/05 05:11:14;;;;;;;6.80;5.70;;;;;;;0.62;79.70;96834.72;5045328;28;20225;-57
2023/04/05 05:13:40;;;;;;;6.43;5.70;;;;;;;0.61;79.48;96841.69;5045185;28;20252;-58
2023/04/05 05:16:10;;;;;;;6.93;6.07;;;;;;;0.64;80.37;96848.50;5046590;28;20198;-58
2023/04/05 05:18:36;;;;;;;6.57;5.93;;;;;;;0.65;80.20;96856.22;5044371;28;20534;-58
2023/04/05 05:21:03;;;;;;;7.17;6.10;;;;;;;0.67;80.89;96858.75;5044657;28;20560;-57
2023/04/05 05:23:29;;;;;;;6.47;5.80;;;;;;;0.75;81.35;96856.59;5044301;28;20209;-58
2023/04/05 05:25:58;;;;;;;6.50;5.90;;;;;;;0.78;79.51;96844.25;5045202;28;20206;-58
2023/04/05 05:28:24;;;;;;;7.87;6.37;;;;;;;0.86;78.95;96852.53;5044161;28;20220;-57
2023/04/05 05:30:51;;;;;;;7.67;6.17;;;;;;;0.93;78.04;96846.06;5044818;28;20217;-57
2023/04/05 05:33:19;;;;;;;8.17;6.37;;;;;;;0.95;80.39;96857.28;5043742;28;20234;-58
2023/04/05 05:35:48;;;;;;;7.70;6.13;;;;;;;0.98;79.91;96849.28;5045006;28;20220;-58
2023/04/05 05:38:15;;;;;;;7.07;6.37;;;;;;;1.04;78.45;96852.47;5045833;28;20201;-58
2023/04/05 05:40:42;;;;;;;7.40;6.17;;;;;;;1.08;79.63;96848.81;5044546;28;20211;-56
2023/04/05 05:43:09;;;;;;;7.10;6.50;;;;;;;1.15;78.06;96857.97;5045428;28;20244;-57
2023/04/05 05:45:35;;;;;;;6.40;5.77;;;;;;;1.28;77.25;96851.19;5044805;28;20255;-58
2023/04/05 05:48:02;;;;;;;6.67;6.03;;;;;;;1.33;77.22;96850.03;5045332;28;20222;-57
2023/04/05 05:50:31;;;;;;;6.23;5.63;;;;;;;1.37;76.95;96853.31;5046243;28;20206;-59
2023/04/05 05:52:58;;;;;;;7.27;6.17;;;;;;;1.84;75.44;96854.16;5046048;28;20258;-58
2023/04/05 05:55:24;;;;;;;6.67;5.97;;;;;;;2.39;71.81;96849.28;5045567;28;20207;-58
2023/04/05 05:57:51;;;;;;;7.07;5.57;;;;;;;2.94;68.21;96852.09;5045851;28;20203;-57
2023/04/05 06:00:19;;;;;;;7.37;5.53;;;;;;;3.57;65.68;96851.75;5045623;28;20302;-58
2023/04/05 06:02:45;;;;;;;9.00;5.43;;;;;;;3.93;63.85;96853.84;5044926;28;21422;-57
2023/04/05 06:05:12;;;;;;;7.77;5.90;;;;;;;4.79;60.65;96861.22;5046223;28;20203;-57
2023/04/05 06:07:39;;;;;;;5.70;5.20;;;;;;;5.44;58.12;96859.38;5046724;28;20207;-59
2023/04/05 06:10:08;;;;;;;6.50;5.80;;;;;;;6.67;53.51;96860.97;5044957;28;20207;-57
2023/04/05 06:12:35;;;;;;;6.20;5.20;;;;;;;7.33;51.27;96867.38;5044997;28;20234;-57
2023/04/05 06:15:02;;;;;;;5.77;5.27;;;;;;;7.77;50.63;96866.53;5044599;28;20203;-58
2023/04/05 06:17:28;;;;;;;9.43;5.20;;;;;;;8.66;45.53;96874.28;5046215;28;20229;-57
2023/04/05 06:19:55;;;;;;;5.67;4.70;;;;;;;8.99;45.30;96869.72;5046226;28;20253;-58
2023/04/05 06:22:22;;;;;;;5.73;5.23;;;;;;;8.86;44.64;96869.03;5045747;28;20210;-57
2023/04/05 06:24:50;;;;;;;7.80;6.30;;;;;;;9.37;44.59;96865.66;5044713;28;20701;-57
2023/04/05 06:27:16;;;;;;;5.33;4.83;;;;;;;10.07;41.39;96872.75;5043932;28;20512;-57
2023/04/05 06:29:43;;;;;;;6.23;4.70;;;;;;;10.22;41.30;96855.59;5043719;28;20218;-57
2023/04/05 06:32:09;;;;;;;8.10;5.37;;;;;;;10.43;38.80;96859.00;5044130;28;20737;-58
2023/04/05 06:34:36;;;;;;;5.77;5.00;;;;;;;10.24;40.63;96864.22;5045378;28;20222;-58
2023/04/05 06:37:02;;;;;;;7.60;5.60;;;;;;;10.09;40.42;96865.56;5045150;28;20203;-58
2023/04/05 06:39:29;;;;;;;6.90;5.27;;;;;;;9.83;42.95;96860.75;5045310;28;20303;-58
2023/04/05 06:41:57;;;;;;;5.43;4.93;;;;;;;9.90;41.22;96861.88;5044451;28;20587;-58
2023/04/05 06:44:24;;;;;;;9.33;4.77;;;;;;;10.07;39.98;96859.56;5044433;28;20214;-58
2023/04/05 06:46:51;;;;;;;5.57;4.70;;;;;;;9.93;41.67;96860.78;5046202;28;20286;-58
2023/04/05 06:49:18;;;;;;;5.00;4.33;;;;;;;9.50;42.87;96858.34;5044926;28;20216;-58
2023/04/05 06:51:47;;;;;;;7.43;4.73;;;;;;;9.43;40.91;96854.56;5044509;28;20242;-57
2023/04/05 06:54:13;;;;;;;5.53;4.87;;;;;;;9.44;41.37;96872.09;5043392;28;20215;-57
2023/04/05 06:56:40;;;;;;;5.37;4.87;;;;;;;9.42;40.87;96856.38;5044754;28;20208;-58
2023/04/05 06:59:12;;;;;;;6.67;4.60;;;;;;;9.49;41.32;96854.06;5043868;28;20199;-57
2023/04/05 07:01:38;;;;;;;8.83;4.80;;;;;;;9.53;43.89;96863.38;5043430;28;20207;-59
2023/04/05 07:04:05;;;;;;;6.37;5.30;;;;;;;9.53;42.60;96865.19;5044328;28;20199;-58
2023/04/05 07:06:33;;;;;;;9.53;4.80;;;;;;;9.72;42.28;96855.53;5044878;28;20207;-57
2023/04/05 07:09:00;;;;;;;5.63;4.80;;;;;;;9.44;41.83;96858.88;5043792;28;20637;-57
2023/04/05 07:11:27;;;;;;;5.67;4.70;;;;;;;9.72;40.32;96852.91;5045327;28;20211;-57
2023/04/05 07:13:53;;;;;;;7.83;5.03;;;;;;;9.63;42.47;96853.72;5045045;28;20239;-57
2023/04/05 07:16:22;;;;;;;5.00;4.60;;;;;;;9.13;40.99;96860.66;5046102;28;20211;-58
2023/04/05 07:18:48;;;;;;;9.63;5.23;;;;;;;8.79;41.80;96852.06;5042644;28;20203;-58
2023/04/05 07:21:17;;;;;;;5.50;5.00;;;;;;;9.24;42.62;96851.84;5049283;28;20240;-58
2023/04/05 07:23:44;;;;;;;5.47;4.97;;;;;;;9.05;43.24;96857.81;5064048;28;20256;-58
2023/04/05 07:26:12;;;;;;;5.60;4.60;;;;;;;8.45;43.66;96855.78;5061148;28;20199;-58
2023/04/05 07:28:40;;;;;;;6.43;4.53;;;;;;;8.55;44.01;96856.72;5054732;28;20211;-58
2023/04/05 07:31:07;;;;;;;5.63;5.10;;;;;;;8.24;44.33;96854.88;5044962;28;20659;-57
2023/04/05 07:33:35;;;;;;;5.43;4.93;;;;;;;7.99;44.99;96862.09;5045492;28;20245;-59
2023/04/05 07:36:02;;;;;;;7.90;5.67;;;;;;;7.83;45.08;96860.81;5044105;28;20646;-59
2023/04/05 07:38:29;;;;;;;5.80;5.20;;;;;;;7.52;46.38;96867.59;5042779;28;20265;-57
2023/04/05 07:40:58;;;;;;;6.63;5.37;;;;;;;7.01;45.69;96859.31;5042546;28;20203;-58
2023/04/05 07:43:25;;;;;;;5.30;4.80;;;;;;;7.36;45.21;96861.88;5043337;28;20674;-58
2023/04/05 07:45:52;;;;;;;5.80;4.87;;;;;;;7.42;46.94;96862.22;5043816;28;20200;-58
2023/04/05 07:48:19;;;;;;;7.23;5.10;;;;;;;7.52;46.20;96851.81;5042889;28;20569;-57
2023/04/05 07:50:48;;;;;;;7.07;5.37;;;;;;;7.34;47.58;96866.41;5042670;28;20285;-59
2023/04/05 07:53:15;;;;;;;6.10;5.37;;;;;;;7.41;47.23;96870.22;5042055;28;20224;-58
2023/04/05 07:55:42;;;;;;;7.40;5.90;;;;;;;7.44;46.47;96862.94;5042030;28;20191;-57
2023/04/05 07:58:10;;;;;;;8.00;5.47;;;;;;;7.38;46.86;96871.31;5044274;28;20207;-59
2023/04/05 08:00:37;;;;;;;5.87;5.37;;;;;;;7.08;48.37;96873.66;5045597;28;20203;-61
2023/04/05 08:03:03;;;;;;;8.43;5.67;;;;;;;6.96;47.41;96870.16;5044071;28;20314;-59
2023/04/05 08:05:30;;;;;;;5.67;5.20;;;;;;;7.00;48.87;96876.88;5043036;28;20203;-58
2023/04/05 08:07:58;;;;;;;6.93;5.80;;;;;;;6.89;49.21;96882.09;5042808;28;20213;-58
2023/04/05 08:10:24;;;;;;;7.10;5.53;;;;;;;6.59;49.51;96878.28;5042660;28;20200;-58
2023/04/05 08:12:51;;;;;;;8.77;5.90;;;;;;;6.56;49.21;96876.69;5042181;28;20230;-57
2023/04/05 08:15:17;;;;;;;5.77;5.20;;;;;;;6.71;49.06;96875.56;5042206;28;20211;-58
2023/04/05 08:17:46;;;;;;;6.00;5.50;;;;;;;6.52;51.21;96871.78;5042850;28;20207;-58
2023/04/05 08:20:13;;;;;;;9.23;6.00;;;;;;;6.35;50.86;96875.63;5045530;28;20242;-61
2023/04/05 08:22:40;;;;;;;7.30;5.83;;;;;;;6.42;49.96;96874.22;5067848;28;20195;-59
2023/04/05 08:25:09;;;;;;;12.13;5.83;;;;;;;6.68;51.37;96870.53;5062705;28;20297;-58
2023/04/05 08:27:36;;;;;;;7.33;6.00;;;;;;;6.67;50.30;96871.47;5064170;28;20200;-58
2023/04/05 08:30:04;;;;;;;9.97;6.07;;;;;;;6.93;48.18;96883.53;5065394;28;20192;-58
2023/04/05 08:32:32;;;;;;;6.80;5.80;;;;;;;7.26;48.68;96876.69;5045431;28;20240;-57
2023/04/05 08:34:59;;;;;;;6.27;5.53;;;;;;;7.77;47.64;96880.53;5041853;28;20203;-58
2023/04/05 08:37:26;;;;;;;6.23;5.60;;;;;;;8.21;47.60;96881.47;5042452;28;20234;-58
2023/04/05 08:39:54;;;;;;;7.77;5.73;;;;;;;8.34;47.14;96887.44;5046268;28;20587;-57
2023/04/05 08:42:30;;;;;;;5.80;5.30;;;;;;;8.86;45.32;96881.38;5046179;28;20555;-58
2023/04/05 08:44:58;;;;;;;6.53;5.77;;;;;;;8.87;45.49;96883.91;5046595;28;20211;-57
2023/04/05 08:47:25;;;;;;;7.37;5.83;;;;;;;9.12;43.13;96890.63;5046324;28;20208;-58
2023/04/05 08:49:51;;;;;;;9.20;5.80;;;;;;;9.17;44.39;96884.97;5046396;28;20208;-57
2023/04/05 08:52:18;;;;;;;5.80;5.20;;;;;;;9.42;43.08;96890.69;5045947;28;20207;-58
2023/04/05 08:54:45;;;;;;;6.03;5.40;;;;;;;9.66;43.19;96889.56;5046072;28;20211;-58
2023/04/05 08:57:12;;;;;;;5.77;5.23;;;;;;;9.66;42.18;96890.41;5046742;28;20199;-58
2023/04/05 08:59:41;;;;;;;7.17;5.10;;;;;;;9.54;43.57;96893.25;5047037;28;20214;-58
2023/04/05 09:02:17;;;;;;;7.97;5.27;;;;;;;9.62;42.77;96891.63;5046749;28;20226;-58
2023/04/05 09:04:44;;;;;;;6.00;5.40;;;;;;;10.01;41.01;96884.72;5045734;28;20207;-58
2023/04/05 09:07:11;;;;;;;5.43;4.87;;;;;;;9.99;40.63;96887.47;5045697;28;20249;-57
2023/04/05 09:09:39;;;;;;;5.30;4.43;;;;;;;10.52;40.74;96876.69;5045172;28;20223;-58
2023/04/05 09:12:08;;;;;;;4.90;4.50;;;;;;;10.46;38.52;96882.50;5045763;28;20544;-58
2023/04/05 09:14:34;;;;;;;5.77;5.00;;;;;;;10.35;38.04;96872.88;5045172;28;20208;-58
2023/04/05 09:17:03;;;;;;;5.57;4.90;;;;;;;10.53;40.04;96880.16;5045444;28;20207;-58
2023/04/05 09:19:29;;;;;;;5.37;4.80;;;;;;;10.52;39.39;96876.69;5045666;28;20264;-57
2023/04/05 09:22:00;;;;;;;5.63;5.13;;;;;;;10.78;39.71;96875.16;5046364;28;20242;-58
2023/04/05 09:24:32;;;;;;;5.33;4.70;;;;;;;10.63;39.55;96881.03;5044626;28;20210;-58
2023/04/05 09:27:04;;;;;;;5.60;4.73;;;;;;;10.66;38.27;96878.94;5045033;28;20196;-59
2023/04/05 09:29:32;;;;;;;5.47;4.97;;;;;;;10.77;38.75;96886.72;5045564;28;20253;-58
2023/04/05 09:32:00;;;;;;;5.70;5.30;;;;;;;10.80;40.06;96877.69;5046034;28;20207;-58
2023/04/05 09:34:29;;;;;;;4.77;4.37;;;;;;;10.51;38.00;96877.66;5043869;28;20687;-57
2023/04/05 09:36:56;;;;;;;5.90;4.83;;;;;;;11.00;37.10;96879.34;5045038;28;20215;-57
2023/04/05 09:39:28;;;;;;;5.40;4.90;;;;;;;11.42;39.24;96883.34;5044649;28;20196;-57
2023/04/05 09:42:05;;;;;;;6.37;4.83;;;;;;;11.01;37.58;96886.31;5044786;28;20204;-57
2023/04/05 09:44:48;;;;;;;6.03;5.00;;;;;;;11.44;38.45;96889.31;5045667;28;20199;-58
2023/04/05 09:47:16;;;;;;;5.87;4.70;;;;;;;11.45;36.71;96876.91;5045643;28;20210;-59
2023/04/05 09:49:44;;;;;;;6.27;4.97;;;;;;;11.49;38.27;96881.78;5044842;28;20322;-57
2023/04/05 09:52:21;;;;;;;4.90;4.50;;;;;;;11.90;37.26;96879.75;5046672;28;20199;-56
2023/04/05 09:54:48;;;;;;;5.80;4.90;;;;;;;12.05;37.63;96883.59;5046895;28;20195;-57
2023/04/05 09:57:17;;;;;;;5.20;4.80;;;;;;;12.27;37.38;96880.56;5045197;28;20681;-57
2023/04/05 09:59:44;;;;;;;5.10;4.70;;;;;;;12.31;36.90;96873.13;5049963;28;20223;-57
2023/04/05 10:02:11;;;;;;;4.70;4.30;;;;;;;12.75;35.06;96869.63;5051818;28;20204;-58
2023/04/05 10:04:44;;;;;;;5.83;5.10;;;;;;;12.51;34.81;96876.50;5058485;28;20204;-57
2023/04/05 10:07:14;;;;;;;6.10;4.60;;;;;;;12.59;35.55;96879.25;5053779;28;20246;-57
2023/04/05 10:09:42;;;;;;;5.13;4.60;;;;;;;12.46;36.10;96882.28;5044681;28;20261;-57
2023/04/05 10:12:10;;;;;;;5.00;4.60;;;;;;;12.32;34.15;96883.63;5044470;28;20652;-57
2023/04/05 10:14:37;;;;;;;6.43;5.03;;;;;;;12.51;35.25;96882.66;5044221;28;20258;-59
2023/04/05 10:17:14;;;;;;;7.40;5.10;;;;;;;12.55;35.38;96881.38;5043952;28;20200;-57
2023/04/05 10:19:51;;;;;;;6.03;5.43;;;;;;;12.83;37.41;96877.69;5043494;28;20243;-57
2023/04/05 10:22:24;;;;;;;6.03;4.90;;;;;;;13.50;34.87;96878.94;5043832;28;20207;-58
2023/04/05 10:24:55;;;;;;;4.87;4.47;;;;;;;12.97;33.75;96878.97;5043782;28;20187;-58
2023/04/05 10:27:26;;;;;;;4.83;4.33;;;;;;;12.80;31.56;96872.69;5043975;28;20528;-58
2023/04/05 10:30:05;;;;;;;5.03;4.50;;;;;;;13.81;32.22;96871.34;5043652;28;20214;-57
2023/04/05 10:32:42;;;;;;;6.13;5.07;;;;;;;13.99;32.98;96873.94;5043400;28;20208;-57
2023/04/05 10:35:15;;;;;;;5.30;4.63;;;;;;;13.24;32.63;96875.44;5044291;28;20203;-57
2023/04/05 10:37:55;;;;;;;6.43;4.90;;;;;;;12.90;33.54;96873.44;5043638;28;20218;-57
2023/04/05 10:40:23;;;;;;;5.40;4.90;;;;;;;12.75;32.62;96866.16;5044380;28;20215;-56
2023/04/05 10:42:49;;;;;;;5.63;4.90;;;;;;;12.79;32.50;96873.66;5045206;28;20235;-57
2023/04/05 10:45:18;;;;;;;6.43;4.77;;;;;;;12.76;33.78;96857.19;5042693;28;20281;-58
2023/04/05 10:47:49;;;;;;;4.90;4.50;;;;;;;13.65;34.28;96861.44;5043542;28;20294;-58
2023/04/05 10:50:21;;;;;;;4.57;4.27;;;;;;;14.28;33.70;96861.09;5043894;28;20253;-58
2023/04/05 10:52:50;;;;;;;5.70;4.60;;;;;;;13.98;33.18;96869.59;5043598;28;20318;-58
2023/04/05 10:55:17;;;;;;;5.97;4.70;;;;;;;13.99;31.91;96871.28;5044115;28;20210;-57
2023/04/05 10:57:45;;;;;;;4.90;4.50;;;;;;;14.26;31.61;96860.44;5044935;28;20597;-57
2023/04/05 11:00:15;;;;;;;6.28;4.93;;;;;;;13.35;32.61;96862.75;5043657;28;20564;-57
2023/04/05 11:02:43;;;;;;;5.00;4.23;;;;;;;13.34;34.90;96860.25;5042918;28;20202;-58
2023/04/05 11:05:31;;;;;;;5.40;4.87;;;;;;;14.12;32.15;96859.22;5045232;28;20210;-58
2023/04/05 11:08:04;;;;;;;5.13;4.72;;;;;;;13.98;33.62;96857.16;5042185;28;20203;-57
2023/04/05 11:10:31;;;;;;;5.40;4.72;;;;;;;13.31;32.89;96863.22;5042832;28;20261;-58
2023/04/05 11:13:09;;;;;;;6.30;5.03;;;;;;;13.05;32.81;96862.28;5043052;28;20216;-58
2023/04/05 11:15:37;;;;;;;5.05;4.63;;;;;;;12.92;31.26;96860.88;5041597;28;20207;-58
2023/04/05 11:18:06;;;;;;;8.90;4.85;;;;;;;12.45;32.70;96860.22;5042083;28;20211;-57
2023/04/05 11:20:43;;;;;;;5.80;5.10;;;;;;;12.54;32.98;96860.31;5042696;28;20247;-58
2023/04/05 11:23:12;;;;;;;5.27;4.80;;;;;;;12.79;33.88;96860.38;5043898;28;20211;-57
2023/04/05 11:25:40;;;;;;;6.00;5.50;;;;;;;12.75;32.55;96856.38;5042852;28;20223;-58
2023/04/05 11:28:08;;;;;;;5.83;4.40;;;;;;;13.59;32.33;96845.28;5041458;28;20196;-57
2023/04/05 11:30:57;;;;;;;5.30;4.83;;;;;;;12.92;31.35;96852.91;5042924;28;20298;-58
2023/04/05 11:33:37;;;;;;;5.93;4.90;;;;;;;13.10;33.18;96846.78;5037584;28;20286;-58
2023/04/05 11:36:04;;;;;;;5.00;4.60;;;;;;;12.47;32.34;96842.31;5042488;28;20205;-57
2023/04/05 11:38:32;;;;;;;5.10;4.70;;;;;;;13.25;34.54;96842.59;5042616;28;20199;-59
2023/04/05 11:41:06;;;;;;;5.13;4.67;;;;;;;13.34;30.48;96831.03;5043212;28;20214;-57
2023/04/05 11:43:37;;;;;;;4.97;4.47;;;;;;;13.76;34.26;96826.63;5043007;28;20215;-58
2023/04/05 11:46:04;;;;;;;5.40;5.00;;;;;;;13.72;33.73;96835.91;5044339;28;20250;-57